ダラス/フォートワース の空港の天気 - METARとTAF

ダラス・フォートワース国際空港 ( KDFW / DFW ) - アメリカ テキサス州ダラス & フォートワース
飛行場実況気象(Metar)
観測時間10/16 01:03 CDT (10/16 06:03 UTC)
風向・風速北 7m/s
視程4850m
天気現象雨 もや
全天の8割程度の雲 雲底高度 270m
全天の8割程度の雲 雲底高度 430m
全天を覆う雲 雲底高度 980m
気温6.7℃
湿度93%
気圧1024hPa
METARKDFW 160603Z 01014KT 3SM RA BR BKN009 BKN014 OVC032 07/06 A3023 RMK AO2 P0002 T00670056
過去の天気等 Google飛行場航空写真 Wunderground天気予報

過去48時間のMETAR

飛行場予報(TAF)
発表時間: 10/16 00:20 CDT (10/16 05:20 UTC)
予報対象時間: 16日1時 CDT ~ 17日7時 CDT
風向・風速北 8m/s
視程3220m
天気現象
全天の8割程度の雲 雲底高度 270m
全天を覆う雲 雲底高度 460m
16日5時 CDT から
風向・風速北 6m/s
視程3220m
天気現象
全天の8割程度の雲 雲底高度 210m
16日10時 CDT から
風向・風速北 8m/s
視程8050m
天気現象
全天の8割程度の雲 雲底高度 210m
16日14時 CDT から
風向・風速北 8m/s
視程10km以上
天気現象しゅう雨
全天の8割程度の雲 雲底高度 460m
全天を覆う雲 雲底高度 910m
KDFW 160520Z 1606/1712 01016KT 2SM RA BKN009 OVC015
FM161000 01012KT 2SM RA BKN007
FM161500 36015KT 5SM RA BKN007
FM161900 36015KT P6SM SHRA BKN015 OVC030